createdAt,value
2023-02-17T00:01:02.646Z,10.85
2023-02-17T00:03:31.591Z,10.84
2023-02-17T00:06:05.480Z,10.77
2023-02-17T00:08:32.265Z,10.85
2023-02-17T00:10:59.489Z,10.86
2023-02-17T00:13:26.662Z,10.88
2023-02-17T00:15:55.776Z,10.84
2023-02-17T00:18:22.504Z,10.84
2023-02-17T00:20:51.693Z,10.91
2023-02-17T00:23:18.730Z,10.92
2023-02-17T00:25:47.563Z,10.91
2023-02-17T00:28:16.654Z,10.73
2023-02-17T00:30:43.340Z,10.92
2023-02-17T00:33:09.901Z,10.79
2023-02-17T00:35:40.728Z,10.93
2023-02-17T00:38:07.378Z,10.92
2023-02-17T00:40:33.983Z,10.86
2023-02-17T00:43:00.538Z,10.93
2023-02-17T00:45:27.158Z,10.93
2023-02-17T00:47:53.762Z,10.94
2023-02-17T00:50:20.505Z,10.94
2023-02-17T00:52:47.050Z,10.96
2023-02-17T00:55:13.702Z,10.94
2023-02-17T00:57:40.308Z,10.97
2023-02-17T01:00:07.633Z,10.92
2023-02-17T01:02:34.278Z,10.97
2023-02-17T01:05:03.134Z,10.96
2023-02-17T01:07:29.791Z,10.97
2023-02-17T01:09:56.340Z,10.96
2023-02-17T01:12:22.904Z,10.99
2023-02-17T01:14:49.570Z,10.96
2023-02-17T01:17:16.152Z,11.00
2023-02-17T01:19:42.797Z,11.01
2023-02-17T01:22:10.296Z,11.00
2023-02-17T01:24:39.875Z,11.00
2023-02-17T01:27:09.055Z,10.99
2023-02-17T01:29:35.726Z,11.01
2023-02-17T01:32:02.330Z,11.01
2023-02-17T01:34:28.964Z,10.91
2023-02-17T01:36:57.852Z,11.00
2023-02-17T01:39:24.442Z,10.93
2023-02-17T01:41:51.084Z,10.98
2023-02-17T01:44:25.878Z,11.02
2023-02-17T01:46:54.642Z,11.02
2023-02-17T01:49:36.070Z,11.01
2023-02-17T01:52:05.965Z,11.03
2023-02-17T01:54:45.756Z,11.03
2023-02-17T01:57:16.838Z,11.03
2023-02-17T01:59:47.669Z,11.04
2023-02-17T02:02:17.608Z,11.03
2023-02-17T02:04:49.469Z,11.03
2023-02-17T02:07:27.527Z,10.88
2023-02-17T02:09:56.407Z,11.02
2023-02-17T02:12:32.308Z,11.03
2023-02-17T02:15:06.820Z,11.02
2023-02-17T02:17:55.156Z,11.03
2023-02-17T02:20:37.148Z,11.02
2023-02-17T02:23:09.838Z,11.01
2023-02-17T02:26:13.748Z,11.00
2023-02-17T02:28:46.238Z,11.01
2023-02-17T02:31:25.107Z,11.00
2023-02-17T02:33:59.269Z,11.00
2023-02-17T02:36:29.243Z,10.98
2023-02-17T02:39:12.235Z,10.93
2023-02-17T02:42:07.026Z,10.97
2023-02-17T02:44:36.361Z,10.87
2023-02-17T02:47:27.833Z,10.96
2023-02-17T02:49:54.484Z,10.97
2023-02-17T02:52:36.327Z,10.90
2023-02-17T02:55:19.125Z,10.97
2023-02-17T02:58:18.658Z,10.89
2023-02-17T03:00:58.781Z,10.95
2023-02-17T03:03:50.310Z,10.94
2023-02-17T03:06:24.058Z,10.94
2023-02-17T03:09:05.117Z,10.81
2023-02-17T03:11:34.629Z,10.78
2023-02-17T03:14:10.452Z,10.90
2023-02-17T03:16:38.682Z,10.75
2023-02-17T03:19:08.522Z,10.91
2023-02-17T03:21:50.667Z,10.89
2023-02-17T03:24:19.519Z,10.92
2023-02-17T03:26:48.355Z,10.82
2023-02-17T03:29:15.065Z,10.86
2023-02-17T03:31:42.269Z,10.59
2023-02-17T03:34:09.083Z,10.54
2023-02-17T03:36:35.633Z,10.91
2023-02-17T03:39:02.297Z,10.84
2023-02-17T03:41:31.363Z,10.91
2023-02-17T03:43:57.928Z,10.82
2023-02-17T03:46:24.516Z,10.76
2023-02-17T03:48:51.082Z,10.90
2023-02-17T03:51:23.555Z,10.89
2023-02-17T03:53:50.692Z,10.88
2023-02-17T03:56:18.523Z,10.88
2023-02-17T03:58:45.207Z,10.43
2023-02-17T04:01:14.811Z,10.90
2023-02-17T04:03:41.861Z,10.83
2023-02-17T04:06:11.453Z,10.89
2023-02-17T04:08:39.463Z,10.89
2023-02-17T04:11:08.082Z,10.59
2023-02-17T04:13:34.971Z,10.84
2023-02-17T04:16:01.803Z,10.92
2023-02-17T04:18:28.631Z,10.91
2023-02-17T04:20:57.474Z,10.91
2023-02-17T04:23:24.146Z,10.75
2023-02-17T04:25:51.021Z,10.56
2023-02-17T04:28:18.030Z,10.89
2023-02-17T04:30:49.879Z,10.88
2023-02-17T04:33:17.723Z,10.90
2023-02-17T04:35:44.479Z,10.81
2023-02-17T04:38:11.642Z,10.91
2023-02-17T04:40:38.729Z,10.93
2023-02-17T04:43:08.586Z,10.91
2023-02-17T04:45:37.197Z,10.94
2023-02-17T04:48:04.238Z,10.91
2023-02-17T04:50:33.382Z,10.93
2023-02-17T04:53:00.136Z,10.85
2023-02-17T04:55:29.759Z,10.93
2023-02-17T04:57:57.137Z,10.91
2023-02-17T05:00:26.307Z,10.52
2023-02-17T05:02:55.383Z,10.83
2023-02-17T05:05:21.912Z,10.82
2023-02-17T05:07:48.696Z,10.72
2023-02-17T05:10:17.444Z,10.83
2023-02-17T05:12:44.414Z,10.90
2023-02-17T05:15:11.984Z,10.89
2023-02-17T05:17:38.796Z,10.89
2023-02-17T05:20:06.527Z,10.74
2023-02-17T05:22:33.375Z,10.88
2023-02-17T05:25:00.019Z,10.88
2023-02-17T05:27:26.760Z,10.79
2023-02-17T05:29:55.768Z,10.85
2023-02-17T05:32:23.611Z,10.72
2023-02-17T05:34:50.235Z,10.82
2023-02-17T05:37:16.806Z,10.88
2023-02-17T05:39:43.379Z,10.60
2023-02-17T05:42:10.372Z,10.86
2023-02-17T05:44:37.313Z,10.78
2023-02-17T05:47:06.221Z,10.79
2023-02-17T05:49:35.399Z,10.77
2023-02-17T05:52:02.840Z,10.85
2023-02-17T05:54:31.591Z,10.86
2023-02-17T05:57:00.405Z,10.72
2023-02-17T05:59:27.115Z,10.86
2023-02-17T06:01:56.616Z,10.84
2023-02-17T06:04:23.352Z,10.72
2023-02-17T06:06:49.968Z,10.83
2023-02-17T06:09:19.139Z,10.80
2023-02-17T06:11:48.069Z,10.86
2023-02-17T06:14:14.681Z,10.86
2023-02-17T06:16:41.273Z,10.86
2023-02-17T06:19:07.849Z,10.73
2023-02-17T06:21:34.463Z,10.85
2023-02-17T06:24:01.046Z,10.87
2023-02-17T06:26:27.760Z,10.87
2023-02-17T06:28:56.663Z,10.94
2023-02-17T06:31:26.401Z,10.81
2023-02-17T06:33:53.434Z,10.83
2023-02-17T06:36:22.261Z,10.80
2023-02-17T06:38:51.145Z,10.92
2023-02-17T06:41:17.766Z,11.09
2023-02-17T06:43:44.326Z,11.02
2023-02-17T06:46:11.714Z,10.98
2023-02-17T06:48:38.407Z,10.69
2023-02-17T06:51:05.473Z,10.90
2023-02-17T06:53:32.203Z,10.87
2023-02-17T06:55:58.805Z,10.98
2023-02-17T06:58:28.012Z,10.89
2023-02-17T07:00:57.029Z,10.82
2023-02-17T07:03:25.939Z,10.89
2023-02-17T07:06:00.382Z,10.99
2023-02-17T07:08:27.095Z,10.70
2023-02-17T07:10:53.755Z,10.98
2023-02-17T07:13:25.277Z,10.99
2023-02-17T07:15:51.911Z,11.00
2023-02-17T07:18:18.476Z,10.87
2023-02-17T07:20:45.236Z,11.01
2023-02-17T07:23:11.875Z,11.03
2023-02-17T07:25:38.449Z,11.07
2023-02-17T07:28:05.104Z,10.96
2023-02-17T07:30:31.945Z,10.98
2023-02-17T07:33:00.768Z,10.94
2023-02-17T07:35:27.384Z,11.02
2023-02-17T07:37:54.052Z,11.10
2023-02-17T07:40:20.746Z,11.13
2023-02-17T07:42:49.932Z,11.22
2023-02-17T07:45:16.746Z,11.14
2023-02-17T07:47:49.200Z,11.20
2023-02-17T07:50:15.806Z,11.29
2023-02-17T07:52:47.339Z,11.31
2023-02-17T07:55:13.927Z,11.33
2023-02-17T07:57:40.540Z,11.34
2023-02-17T08:00:09.863Z,11.45
2023-02-17T08:02:39.654Z,11.47
2023-02-17T08:05:06.443Z,11.46
2023-02-17T08:07:33.310Z,11.49
2023-02-17T08:10:21.107Z,11.59
2023-02-17T08:12:50.333Z,11.59
2023-02-17T08:15:17.137Z,11.66
2023-02-17T08:17:46.062Z,11.60
2023-02-17T08:20:15.216Z,11.68
2023-02-17T08:22:41.812Z,11.65
2023-02-17T08:25:08.921Z,11.76
2023-02-17T08:27:35.652Z,11.77
2023-02-17T08:30:02.412Z,11.69
2023-02-17T08:32:29.096Z,11.83
2023-02-17T08:34:56.900Z,11.84
2023-02-17T08:37:23.528Z,11.77
2023-02-17T08:39:50.229Z,11.50
2023-02-17T08:42:18.053Z,11.94
2023-02-17T08:44:44.921Z,12.02
2023-02-17T08:47:11.565Z,11.97
2023-02-17T08:49:38.293Z,12.03
2023-02-17T08:52:05.000Z,11.98
2023-02-17T08:54:31.889Z,12.06
2023-02-17T08:57:01.471Z,12.08
2023-02-17T08:59:28.181Z,11.48
2023-02-17T09:01:55.730Z,12.15
2023-02-17T09:04:24.736Z,12.31
2023-02-17T09:06:53.464Z,12.32
2023-02-17T09:09:23.271Z,12.20
2023-02-17T09:11:50.015Z,12.38
2023-02-17T09:14:16.825Z,12.30
2023-02-17T09:16:43.471Z,12.25
2023-02-17T09:19:14.942Z,12.28
2023-02-17T09:21:44.316Z,12.40
2023-02-17T09:24:11.330Z,12.34
2023-02-17T09:26:38.056Z,12.37
2023-02-17T09:29:08.658Z,11.66
2023-02-17T09:31:36.290Z,12.50
2023-02-17T09:34:04.580Z,12.51
2023-02-17T09:36:33.953Z,12.40
2023-02-17T09:39:01.802Z,12.29
2023-02-17T09:41:39.826Z,12.71
2023-02-17T09:44:17.733Z,12.61
2023-02-17T09:47:01.373Z,12.61
2023-02-17T09:49:36.793Z,12.54
2023-02-17T09:52:09.301Z,12.63
2023-02-17T09:54:57.970Z,12.71
2023-02-17T09:57:28.952Z,12.72
2023-02-17T10:00:16.384Z,12.77
2023-02-17T10:02:46.208Z,12.83
2023-02-17T10:05:19.229Z,12.89
2023-02-17T10:07:55.835Z,12.92
2023-02-17T10:10:39.166Z,13.16
2023-02-17T10:13:09.618Z,13.20
2023-02-17T10:15:44.851Z,13.45
2023-02-17T10:18:21.213Z,13.40
2023-02-17T10:20:55.705Z,13.30
2023-02-17T10:23:25.740Z,13.21
2023-02-17T10:26:13.418Z,13.21
2023-02-17T10:29:01.929Z,13.22
2023-02-17T10:31:37.795Z,13.23
2023-02-17T10:34:20.715Z,13.21
2023-02-17T10:37:01.003Z,13.17
2023-02-17T10:39:34.036Z,13.13
2023-02-17T10:42:03.861Z,13.04
2023-02-17T10:44:36.630Z,13.00
2023-02-17T10:47:04.589Z,13.04
2023-02-17T10:49:39.679Z,12.92
2023-02-17T10:52:16.928Z,13.07
2023-02-17T10:55:21.964Z,13.13
2023-02-17T10:57:54.608Z,12.72
2023-02-17T11:00:21.698Z,13.11
2023-02-17T11:02:52.225Z,12.71
2023-02-17T11:05:32.304Z,13.06
2023-02-17T11:08:06.324Z,13.11
2023-02-17T11:10:37.849Z,13.12
2023-02-17T11:13:29.815Z,13.13
2023-02-17T11:15:56.664Z,13.18
2023-02-17T11:18:28.634Z,13.22
2023-02-17T11:21:11.368Z,13.20
2023-02-17T11:24:01.646Z,13.30
2023-02-17T11:26:31.933Z,13.41
2023-02-17T11:29:17.336Z,13.48
2023-02-17T11:31:55.160Z,13.53
2023-02-17T11:34:28.357Z,13.49
2023-02-17T11:37:24.459Z,13.53
2023-02-17T11:39:55.569Z,13.61
2023-02-17T11:42:25.484Z,13.57
2023-02-17T11:44:54.245Z,13.56
2023-02-17T11:47:33.213Z,13.58
2023-02-17T11:50:26.172Z,13.45
2023-02-17T11:53:27.014Z,13.46
2023-02-17T11:56:08.664Z,12.97
2023-02-17T11:59:12.458Z,13.26
2023-02-17T12:02:09.797Z,13.19
2023-02-17T12:04:54.915Z,13.13
2023-02-17T12:07:39.670Z,12.99
2023-02-17T12:10:26.681Z,13.11
2023-02-17T12:13:14.955Z,13.06
2023-02-17T12:15:51.171Z,13.15
2023-02-17T12:18:33.846Z,13.03
2023-02-17T12:21:03.557Z,13.14
2023-02-17T12:24:03.541Z,13.14
2023-02-17T12:26:45.114Z,12.70
2023-02-17T12:29:25.215Z,13.11
2023-02-17T12:32:13.812Z,13.14
2023-02-17T12:35:04.133Z,13.13
2023-02-17T12:37:37.218Z,12.67
2023-02-17T12:40:16.062Z,13.11
2023-02-17T12:42:53.783Z,12.97
2023-02-17T12:45:25.501Z,13.00
2023-02-17T12:48:05.053Z,13.08
2023-02-17T12:50:35.076Z,12.84
2023-02-17T12:53:12.032Z,12.20
2023-02-17T12:55:53.085Z,12.94
2023-02-17T12:58:27.566Z,13.15
2023-02-17T13:01:10.667Z,13.15
2023-02-17T13:03:37.870Z,13.17
2023-02-17T13:06:13.690Z,13.15
2023-02-17T13:08:50.709Z,13.19
2023-02-17T13:11:38.429Z,13.15
2023-02-17T13:14:40.199Z,13.13
2023-02-17T13:17:09.309Z,13.08
2023-02-17T13:19:36.002Z,12.89
2023-02-17T13:22:04.083Z,13.05
2023-02-17T13:24:52.493Z,13.15
2023-02-17T13:27:29.490Z,13.07
2023-02-17T13:30:03.504Z,13.00
2023-02-17T13:32:35.996Z,13.07
2023-02-17T13:35:07.324Z,12.99
2023-02-17T13:37:33.825Z,12.96
2023-02-17T13:40:24.177Z,12.94
2023-02-17T13:42:59.492Z,12.93
2023-02-17T13:45:29.221Z,12.92
2023-02-17T13:48:17.548Z,12.58
2023-02-17T13:50:48.437Z,12.90
2023-02-17T13:53:37.824Z,12.78
2023-02-17T13:56:11.140Z,12.87
2023-02-17T13:58:40.772Z,12.89
2023-02-17T14:01:15.198Z,12.85
2023-02-17T14:03:50.781Z,12.86
2023-02-17T14:06:42.917Z,12.83
2023-02-17T14:09:27.171Z,12.84
2023-02-17T14:11:55.722Z,12.76
2023-02-17T14:14:26.261Z,12.86
2023-02-17T14:17:00.714Z,12.87
2023-02-17T14:19:27.652Z,12.92
2023-02-17T14:21:56.972Z,12.98
2023-02-17T14:24:26.683Z,13.01
2023-02-17T14:27:02.060Z,13.05
2023-02-17T14:29:45.575Z,13.06
2023-02-17T14:32:30.841Z,13.04
2023-02-17T14:35:12.684Z,13.02
2023-02-17T14:37:41.169Z,13.02
2023-02-17T14:40:19.171Z,13.03
2023-02-17T14:42:46.802Z,13.03
2023-02-17T14:45:15.287Z,12.88
2023-02-17T14:47:45.814Z,12.98
2023-02-17T14:50:13.484Z,12.93
2023-02-17T14:52:46.597Z,12.94
2023-02-17T14:55:31.556Z,12.86
2023-02-17T14:57:58.386Z,12.91
2023-02-17T15:00:27.919Z,12.93
2023-02-17T15:02:54.571Z,12.95
2023-02-17T15:05:21.235Z,12.93
2023-02-17T15:07:50.348Z,12.89
2023-02-17T15:10:28.317Z,12.92
2023-02-17T15:12:56.220Z,12.99
2023-02-17T15:15:22.893Z,13.01
2023-02-17T15:17:51.742Z,12.89
2023-02-17T15:20:18.787Z,13.00
2023-02-17T15:22:46.306Z,13.03
2023-02-17T15:25:17.161Z,13.03
2023-02-17T15:27:43.863Z,12.92
2023-02-17T15:30:19.612Z,13.05
2023-02-17T15:32:47.057Z,13.25
2023-02-17T15:35:29.226Z,13.20
2023-02-17T15:37:57.125Z,13.20
2023-02-17T15:40:25.993Z,13.21
2023-02-17T15:43:00.241Z,13.21
2023-02-17T15:45:27.080Z,12.77
2023-02-17T15:48:03.699Z,13.22
2023-02-17T15:50:30.661Z,13.08
2023-02-17T15:52:57.793Z,13.11
2023-02-17T15:55:24.681Z,13.11
2023-02-17T15:57:54.729Z,13.18
2023-02-17T16:00:31.308Z,13.08
2023-02-17T16:03:01.412Z,13.17
2023-02-17T16:05:33.642Z,13.06
2023-02-17T16:08:00.236Z,13.09
2023-02-17T16:10:29.664Z,13.03
2023-02-17T16:12:58.285Z,13.11
2023-02-17T16:15:26.790Z,13.05
2023-02-17T16:17:56.164Z,12.90
2023-02-17T16:20:34.730Z,12.99
2023-02-17T16:23:02.173Z,12.97
2023-02-17T16:25:29.520Z,12.89
2023-02-17T16:27:56.458Z,12.93
2023-02-17T16:30:23.068Z,12.91
2023-02-17T16:32:50.580Z,12.90
2023-02-17T16:35:22.893Z,12.73
2023-02-17T16:37:56.932Z,12.56
2023-02-17T16:40:27.005Z,12.74
2023-02-17T16:42:56.196Z,12.86
2023-02-17T16:45:25.468Z,12.85
2023-02-17T16:47:55.260Z,12.82
2023-02-17T16:50:26.504Z,12.83
2023-02-17T16:52:58.037Z,12.68
2023-02-17T16:55:28.039Z,12.79
2023-02-17T16:57:57.331Z,12.39
2023-02-17T17:00:29.733Z,12.75
2023-02-17T17:02:57.660Z,12.69
2023-02-17T17:05:26.437Z,12.64
2023-02-17T17:07:53.010Z,12.75
2023-02-17T17:10:26.577Z,12.74
2023-02-17T17:12:55.689Z,12.75
2023-02-17T17:15:24.696Z,12.73
2023-02-17T17:17:54.265Z,12.74
2023-02-17T17:20:24.214Z,12.69
2023-02-17T17:22:51.541Z,12.56
2023-02-17T17:25:18.578Z,12.62
2023-02-17T17:27:46.119Z,12.67
2023-02-17T17:30:21.901Z,12.64
2023-02-17T17:32:49.044Z,12.65
2023-02-17T17:35:16.458Z,12.55
2023-02-17T17:37:43.269Z,12.65
2023-02-17T17:40:25.096Z,12.63
2023-02-17T17:42:54.662Z,12.19
2023-02-17T17:45:23.581Z,12.61
2023-02-17T17:47:50.710Z,12.51
2023-02-17T17:50:25.548Z,12.60
2023-02-17T17:52:53.330Z,12.59
2023-02-17T17:55:22.234Z,12.56
2023-02-17T17:57:51.325Z,12.40
2023-02-17T18:00:18.964Z,12.50
2023-02-17T18:02:45.532Z,12.46
2023-02-17T18:05:13.054Z,12.46
2023-02-17T18:07:49.531Z,12.47
2023-02-17T18:10:16.559Z,12.38
2023-02-17T18:12:46.251Z,12.43
2023-02-17T18:15:13.985Z,12.41
2023-02-17T18:17:41.900Z,12.50
2023-02-17T18:20:12.011Z,12.47
2023-02-17T18:22:41.709Z,12.48
2023-02-17T18:25:09.012Z,12.48
2023-02-17T18:27:45.966Z,12.49
2023-02-17T18:30:16.280Z,12.47
2023-02-17T18:32:45.070Z,12.49
2023-02-17T18:35:12.467Z,12.48
2023-02-17T18:37:42.124Z,12.47
2023-02-17T18:40:12.643Z,12.46
2023-02-17T18:42:40.577Z,11.94
2023-02-17T18:45:08.675Z,12.44
2023-02-17T18:47:35.337Z,12.43
2023-02-17T18:50:02.122Z,12.36
2023-02-17T18:52:30.788Z,12.30
2023-02-17T18:54:57.368Z,12.30
2023-02-17T18:57:23.932Z,12.28
2023-02-17T18:59:52.864Z,12.29
2023-02-17T19:02:20.221Z,12.27
2023-02-17T19:04:51.940Z,12.05
2023-02-17T19:07:22.267Z,12.30
2023-02-17T19:09:53.068Z,12.21
2023-02-17T19:12:19.733Z,12.25
2023-02-17T19:14:47.907Z,12.21
2023-02-17T19:17:21.243Z,12.30
2023-02-17T19:19:50.753Z,12.20
2023-02-17T19:22:18.058Z,12.27
2023-02-17T19:24:45.262Z,12.28
2023-02-17T19:27:14.446Z,12.26
2023-02-17T19:29:40.998Z,12.10
2023-02-17T19:32:07.631Z,12.25
2023-02-17T19:34:37.717Z,12.22
2023-02-17T19:37:04.754Z,12.23
2023-02-17T19:39:34.361Z,12.04
2023-02-17T19:42:01.084Z,12.18
2023-02-17T19:44:31.256Z,11.94
2023-02-17T19:46:58.224Z,12.04
2023-02-17T19:49:27.170Z,11.96
2023-02-17T19:51:55.928Z,12.02
2023-02-17T19:54:23.305Z,11.84
2023-02-17T19:56:50.183Z,11.87
2023-02-17T19:59:19.211Z,11.93
2023-02-17T20:01:48.177Z,11.90
2023-02-17T20:04:15.146Z,11.89
2023-02-17T20:06:46.067Z,11.86
2023-02-17T20:09:22.470Z,11.85
2023-02-17T20:11:52.986Z,11.80
2023-02-17T20:14:20.823Z,11.77
2023-02-17T20:16:48.595Z,11.87
2023-02-17T20:19:20.561Z,11.78
2023-02-17T20:21:47.125Z,11.83
2023-02-17T20:24:14.786Z,11.93
2023-02-17T20:26:45.914Z,11.95
2023-02-17T20:29:13.342Z,11.97
2023-02-17T20:31:41.130Z,11.98
2023-02-17T20:34:23.637Z,11.98
2023-02-17T20:36:52.400Z,11.83
2023-02-17T20:39:21.362Z,11.87
2023-02-17T20:41:47.952Z,11.82
2023-02-17T20:44:14.976Z,11.85
2023-02-17T20:46:42.875Z,11.88
2023-02-17T20:49:10.162Z,11.96
2023-02-17T20:51:36.843Z,11.96
2023-02-17T20:54:03.732Z,11.96
2023-02-17T20:56:37.215Z,11.92
2023-02-17T20:59:05.164Z,11.85
2023-02-17T21:01:34.511Z,11.50
2023-02-17T21:04:01.516Z,11.92
2023-02-17T21:06:38.093Z,11.81
2023-02-17T21:09:07.728Z,11.91
2023-02-17T21:11:34.863Z,11.85
2023-02-17T21:14:01.495Z,11.87
2023-02-17T21:16:31.854Z,11.85
2023-02-17T21:18:59.693Z,11.87
2023-02-17T21:21:28.995Z,11.81
2023-02-17T21:23:56.580Z,11.54
2023-02-17T21:26:23.680Z,11.78
2023-02-17T21:28:51.062Z,11.80
2023-02-17T21:31:18.580Z,11.78
2023-02-17T21:33:47.491Z,11.71
2023-02-17T21:36:18.195Z,11.66
2023-02-17T21:38:49.849Z,11.70
2023-02-17T21:41:20.611Z,11.74
2023-02-17T21:44:06.758Z,11.73
2023-02-17T21:46:34.377Z,11.31
2023-02-17T21:49:01.528Z,10.97
2023-02-17T21:51:31.131Z,11.62
2023-02-17T21:54:00.352Z,11.68
2023-02-17T21:56:27.022Z,11.64
2023-02-17T21:58:55.554Z,11.68
2023-02-17T22:01:24.315Z,11.69
2023-02-17T22:03:51.228Z,11.68
2023-02-17T22:06:22.350Z,11.67
2023-02-17T22:08:49.033Z,11.67
2023-02-17T22:11:17.782Z,11.28
2023-02-17T22:13:44.779Z,11.66
2023-02-17T22:16:11.940Z,11.39
2023-02-17T22:18:38.559Z,11.59
2023-02-17T22:21:10.999Z,11.65
2023-02-17T22:23:38.200Z,11.65
2023-02-17T22:26:10.164Z,11.65
2023-02-17T22:28:37.432Z,11.64
2023-02-17T22:31:04.836Z,11.61
2023-02-17T22:33:34.481Z,11.58
2023-02-17T22:36:07.499Z,11.63
2023-02-17T22:38:34.345Z,11.63
2023-02-17T22:41:05.397Z,11.61
2023-02-17T22:43:32.014Z,11.44
2023-02-17T22:46:00.870Z,11.60
2023-02-17T22:48:29.066Z,11.62
2023-02-17T22:50:55.786Z,11.62
2023-02-17T22:53:23.219Z,11.63
2023-02-17T22:55:58.112Z,11.62
2023-02-17T22:58:26.572Z,11.63
2023-02-17T23:01:08.592Z,11.63
2023-02-17T23:03:35.651Z,11.64
2023-02-17T23:06:26.584Z,11.63
2023-02-17T23:08:54.024Z,11.63
2023-02-17T23:11:44.095Z,11.62
2023-02-17T23:14:12.533Z,11.63
2023-02-17T23:16:39.493Z,11.64
2023-02-17T23:19:14.544Z,11.64
2023-02-17T23:21:46.587Z,11.63
2023-02-17T23:24:15.388Z,11.64
2023-02-17T23:26:44.728Z,11.65
2023-02-17T23:29:17.179Z,11.66
2023-02-17T23:31:43.839Z,11.57
2023-02-17T23:34:14.590Z,11.66
2023-02-17T23:36:43.096Z,11.66
2023-02-17T23:39:10.416Z,11.66
2023-02-17T23:41:38.239Z,11.60
2023-02-17T23:44:09.072Z,11.67
2023-02-17T23:46:36.409Z,11.67
2023-02-17T23:49:03.488Z,11.68
2023-02-17T23:51:30.281Z,11.52
2023-02-17T23:53:59.210Z,11.64
2023-02-17T23:56:27.824Z,11.45
2023-02-17T23:58:54.578Z,11.60
